createdAt,value
2023-04-11T00:02:00.771Z,384.67
2023-04-11T00:07:24.167Z,380.33
2023-04-11T00:12:16.563Z,379.26
2023-04-11T00:17:16.491Z,380.11
2023-04-11T00:22:16.438Z,379.47
2023-04-11T00:27:16.347Z,390.01
2023-04-11T00:32:16.301Z,391.59
2023-04-11T00:37:16.196Z,388.44
2023-04-11T00:42:16.169Z,387.32
2023-04-11T00:47:16.082Z,382.27
2023-04-11T00:52:16.015Z,383.58
2023-04-11T00:57:15.942Z,378.41
2023-04-11T01:02:15.977Z,371.35
2023-04-11T01:07:15.829Z,373.44
2023-04-11T01:12:15.765Z,372.18
2023-04-11T01:17:15.708Z,372.18
2023-04-11T01:22:15.634Z,366.43
2023-04-11T01:27:15.556Z,364.82
2023-04-11T01:32:15.477Z,363.62
2023-04-11T01:37:15.406Z,362.03
2023-04-11T01:42:15.367Z,359.29
2023-04-11T01:47:15.281Z,361.64
2023-04-11T01:52:15.218Z,360.07
2023-04-11T01:57:15.247Z,357.74
2023-04-11T02:02:15.251Z,355.82
2023-04-11T02:07:15.014Z,353.92
2023-04-11T02:12:14.970Z,355.06
2023-04-11T02:17:14.900Z,354.30
2023-04-11T02:22:14.873Z,353.92
2023-04-11T02:27:14.775Z,352.79
2023-04-11T02:32:14.799Z,354.68
2023-04-11T02:37:14.645Z,352.79
2023-04-11T02:42:14.621Z,352.42
2023-04-11T02:47:14.483Z,350.56
2023-04-11T02:52:14.442Z,353.17
2023-04-11T02:57:14.363Z,354.68
2023-04-11T03:02:14.425Z,354.30
2023-04-11T03:07:14.229Z,352.79
2023-04-11T03:12:14.163Z,351.67
2023-04-11T03:17:14.090Z,353.55
2023-04-11T03:22:14.082Z,350.93
2023-04-11T03:27:13.960Z,351.67
2023-04-11T03:32:13.925Z,350.19
2023-04-11T03:37:13.829Z,352.05
2023-04-11T03:42:13.795Z,352.42
2023-04-11T03:47:13.695Z,351.67
2023-04-11T03:52:13.682Z,351.30
2023-04-11T03:57:13.567Z,350.56
2023-04-11T04:02:14.893Z,351.67
2023-04-11T04:07:13.426Z,352.42
2023-04-11T04:12:13.390Z,352.42
2023-04-11T04:17:24.273Z,353.92
2023-04-11T04:22:16.663Z,354.30
2023-04-11T04:27:16.612Z,353.92
2023-04-11T04:32:16.524Z,355.06
2023-04-11T04:37:16.465Z,353.92
2023-04-11T04:42:16.397Z,353.92
2023-04-11T04:47:16.334Z,352.42
2023-04-11T04:52:16.264Z,350.56
2023-04-11T04:57:16.196Z,349.45
2023-04-11T05:02:16.188Z,347.98
2023-04-11T05:07:16.086Z,345.45
2023-04-11T05:12:15.996Z,345.09
2023-04-11T05:17:15.947Z,343.66
2023-04-11T05:22:15.858Z,342.95
2023-04-11T05:27:15.822Z,342.59
2023-04-11T05:32:15.724Z,344.37
2023-04-11T05:37:15.688Z,342.24
2023-04-11T05:42:15.616Z,341.54
2023-04-11T05:47:15.562Z,341.54
2023-04-11T05:52:15.468Z,341.18
2023-04-11T05:57:15.413Z,343.66
2023-04-11T06:02:15.436Z,346.17
2023-04-11T06:07:15.288Z,350.19
2023-04-11T06:12:15.188Z,351.30
2023-04-11T06:17:15.156Z,362.43
2023-04-11T06:22:15.070Z,368.46
2023-04-11T06:27:15.028Z,377.98
2023-04-11T06:32:14.928Z,385.55
2023-04-11T06:37:14.929Z,393.42
2023-04-11T06:42:14.817Z,397.36
2023-04-11T06:47:14.763Z,402.58
2023-04-11T06:52:14.673Z,404.76
2023-04-11T06:57:14.622Z,401.38
2023-04-11T07:02:14.614Z,402.34
2023-04-11T07:07:14.506Z,401.86
2023-04-11T07:12:14.405Z,400.43
2023-04-11T07:17:14.373Z,399.72
2023-04-11T07:22:14.318Z,394.80
2023-04-11T07:27:14.387Z,403.30
2023-04-11T07:32:14.143Z,405.49
2023-04-11T07:37:14.097Z,403.30
2023-04-11T07:42:14.043Z,403.06
2023-04-11T07:47:13.973Z,405.24
2023-04-11T07:52:14.465Z,416.25
2023-04-11T07:57:13.837Z,426.79
2023-04-11T08:02:13.830Z,441.60
2023-04-11T08:07:13.739Z,448.95
2023-04-11T08:12:13.633Z,451.96
2023-04-11T08:17:25.211Z,451.36
2023-04-11T08:22:14.493Z,452.87
2023-04-11T08:27:13.454Z,449.25
2023-04-11T08:32:13.531Z,454.40
2023-04-11T08:37:13.321Z,448.06
2023-04-11T08:42:13.239Z,445.69
2023-04-11T08:47:13.193Z,446.87
2023-04-11T08:52:13.100Z,439.01
2023-04-11T08:57:13.068Z,437.02
2023-04-11T09:02:13.046Z,442.76
2023-04-11T09:07:12.878Z,443.34
2023-04-11T09:12:12.831Z,445.10
2023-04-11T09:17:12.765Z,444.80
2023-04-11T09:22:12.723Z,445.98
2023-04-11T09:27:12.700Z,448.35
2023-04-11T09:32:12.687Z,431.43
2023-04-11T09:37:12.501Z,411.68
2023-04-11T09:42:12.452Z,404.03
2023-04-11T09:47:12.368Z,404.76
2023-04-11T09:52:12.311Z,404.51
2023-04-11T09:57:12.265Z,418.06
2023-04-11T10:02:12.307Z,416.25
2023-04-11T10:07:12.107Z,413.44
2023-04-11T10:12:12.048Z,417.28
2023-04-11T10:17:11.987Z,429.51
2023-04-11T10:22:11.920Z,412.43
2023-04-11T10:27:11.841Z,403.79
2023-04-11T10:32:11.808Z,402.58
2023-04-11T10:37:11.714Z,404.03
2023-04-11T10:42:11.652Z,394.80
2023-04-11T10:47:11.693Z,399.24
2023-04-11T10:52:11.526Z,392.96
2023-04-11T10:57:11.419Z,406.71
2023-04-11T11:02:11.461Z,403.30
2023-04-11T11:07:11.327Z,399.01
2023-04-11T11:12:11.235Z,390.91
2023-04-11T11:17:11.178Z,390.91
2023-04-11T11:22:11.112Z,388.88
2023-04-11T11:27:11.098Z,386.43
2023-04-11T11:32:11.023Z,380.54
2023-04-11T11:37:10.907Z,387.32
2023-04-11T11:42:10.867Z,386.65
2023-04-11T11:47:11.493Z,380.11
2023-04-11T11:52:10.717Z,365.62
2023-04-11T11:57:10.702Z,354.68
2023-04-11T12:02:10.666Z,350.19
2023-04-11T12:07:10.861Z,340.83
2023-04-11T12:12:10.469Z,347.26
2023-04-11T12:17:10.377Z,353.92
2023-04-11T12:22:10.414Z,368.87
2023-04-11T12:27:10.820Z,380.33
2023-04-11T12:32:10.234Z,389.11
2023-04-11T12:37:10.097Z,395.27
2023-04-11T12:42:10.637Z,398.07
2023-04-11T12:47:09.967Z,398.30
2023-04-11T12:52:10.132Z,398.07
2023-04-11T12:57:09.849Z,399.72
2023-04-11T13:02:09.867Z,396.89
2023-04-11T13:07:09.688Z,399.72
2023-04-11T13:12:09.664Z,404.76
2023-04-11T13:17:09.577Z,401.62
2023-04-11T13:22:09.526Z,397.60
2023-04-11T13:27:09.443Z,400.19
2023-04-11T13:32:09.384Z,402.34
2023-04-11T13:37:09.430Z,403.55
2023-04-11T13:42:09.280Z,402.10
2023-04-11T13:47:09.174Z,400.67
2023-04-11T13:52:09.136Z,407.94
2023-04-11T13:57:09.048Z,414.46
2023-04-11T14:02:09.182Z,420.40
2023-04-11T14:07:08.925Z,424.64
2023-04-11T14:12:08.853Z,421.19
2023-04-11T14:17:08.876Z,424.90
2023-04-11T14:22:08.718Z,432.54
2023-04-11T14:27:08.646Z,439.59
2023-04-11T14:32:08.634Z,441.89
2023-04-11T14:37:08.572Z,448.06
2023-04-11T14:42:08.467Z,453.48
2023-04-11T14:47:08.377Z,457.79
2023-04-11T14:52:08.338Z,466.34
2023-04-11T14:57:08.267Z,465.37
2023-04-11T15:02:08.307Z,470.57
2023-04-11T15:07:08.144Z,473.54
2023-04-11T15:12:08.048Z,477.91
2023-04-11T15:17:08.005Z,477.23
2023-04-11T15:22:07.932Z,479.26
2023-04-11T15:27:07.836Z,480.63
2023-04-11T15:32:07.803Z,478.58
2023-04-11T15:37:07.777Z,477.91
2023-04-11T15:42:07.685Z,476.55
2023-04-11T15:47:07.647Z,481.32
2023-04-11T15:52:07.546Z,485.48
2023-04-11T15:57:07.450Z,488.64
2023-04-11T16:02:07.584Z,490.42
2023-04-11T16:07:07.338Z,486.17
2023-04-11T16:12:07.280Z,477.91
2023-04-11T16:17:07.998Z,472.55
2023-04-11T16:22:07.132Z,472.88
2023-04-11T16:27:07.050Z,469.26
2023-04-11T16:32:07.031Z,470.57
2023-04-11T16:37:06.943Z,473.21
2023-04-11T16:42:06.840Z,470.90
2023-04-11T16:47:06.812Z,466.66
2023-04-11T16:52:06.732Z,457.17
2023-04-11T16:57:06.718Z,457.17
2023-04-11T17:02:06.676Z,462.18
2023-04-11T17:07:06.539Z,456.24
2023-04-11T17:12:06.453Z,455.93
2023-04-11T17:17:06.476Z,447.76
2023-04-11T17:22:06.332Z,442.18
2023-04-11T17:27:06.621Z,442.18
2023-04-11T17:32:06.186Z,444.80
2023-04-11T17:37:06.132Z,443.05
2023-04-11T17:42:06.073Z,443.64
2023-04-11T17:47:06.021Z,448.65
2023-04-11T17:52:05.919Z,452.26
2023-04-11T17:57:05.898Z,449.55
2023-04-11T18:02:05.911Z,448.95
2023-04-11T18:07:05.749Z,444.80
2023-04-11T18:12:05.728Z,443.93
2023-04-11T18:17:05.645Z,445.98
2023-04-11T18:22:05.538Z,443.93
2023-04-11T18:27:05.527Z,441.31
2023-04-11T18:32:05.411Z,441.02
2023-04-11T18:37:05.413Z,433.37
2023-04-11T18:42:05.327Z,430.33
2023-04-11T18:47:06.655Z,425.44
2023-04-11T18:52:05.155Z,423.84
2023-04-11T18:57:05.074Z,417.80
2023-04-11T19:02:05.200Z,421.72
2023-04-11T19:07:04.982Z,419.36
2023-04-11T19:12:04.883Z,419.88
2023-04-11T19:17:04.842Z,416.51
2023-04-11T19:22:04.738Z,414.71
2023-04-11T19:27:04.696Z,419.88
2023-04-11T19:32:04.634Z,417.54
2023-04-11T19:37:04.588Z,421.19
2023-04-11T19:42:04.505Z,421.98
2023-04-11T19:47:04.419Z,424.64
2023-04-11T19:52:04.470Z,423.30
2023-04-11T19:57:04.338Z,424.10
2023-04-11T20:02:04.250Z,420.14
2023-04-11T20:07:04.182Z,421.19
2023-04-11T20:12:04.066Z,420.66
2023-04-11T20:17:04.074Z,419.62
2023-04-11T20:22:04.013Z,417.54
2023-04-11T20:27:03.878Z,418.58
2023-04-11T20:32:03.825Z,422.51
2023-04-11T20:37:03.754Z,430.60
2023-04-11T20:42:03.663Z,440.45
2023-04-11T20:47:03.659Z,448.65
2023-04-11T20:52:03.551Z,450.45
2023-04-11T20:57:03.485Z,453.79
2023-04-11T21:02:03.500Z,451.36
2023-04-11T21:07:03.364Z,451.96
2023-04-11T21:12:03.352Z,452.57
2023-04-11T21:17:03.284Z,451.36
2023-04-11T21:22:03.453Z,448.95
2023-04-11T21:27:03.087Z,445.98
2023-04-11T21:32:03.028Z,448.06
2023-04-11T21:37:03.031Z,446.87
2023-04-11T21:42:02.938Z,448.06
2023-04-11T21:47:02.951Z,452.57
2023-04-11T21:52:02.791Z,457.79
2023-04-11T21:57:02.673Z,460.60
2023-04-11T22:02:02.686Z,460.60
2023-04-11T22:07:02.565Z,462.82
2023-04-11T22:12:02.448Z,458.41
2023-04-11T22:17:02.441Z,458.10
2023-04-11T22:22:02.349Z,458.72
2023-04-11T22:27:02.326Z,459.04
2023-04-11T22:32:02.286Z,457.17
2023-04-11T22:37:02.160Z,454.70
2023-04-11T22:42:02.105Z,455.93
2023-04-11T22:47:02.027Z,456.55
2023-04-11T22:52:01.988Z,456.86
2023-04-11T22:57:01.900Z,453.17
2023-04-11T23:02:03.407Z,453.48
2023-04-11T23:07:01.778Z,449.25
2023-04-11T23:12:01.699Z,448.35
2023-04-11T23:17:01.679Z,446.57
2023-04-11T23:22:01.559Z,446.57
2023-04-11T23:27:01.512Z,445.69
2023-04-11T23:32:01.428Z,451.05
2023-04-11T23:37:01.460Z,448.95
2023-04-11T23:42:01.326Z,451.05
2023-04-11T23:47:01.946Z,450.45
2023-04-11T23:52:01.161Z,457.17
2023-04-11T23:57:01.235Z,463.77
